createdAt,value
2024-02-26T00:00:10.030Z,2.20
2024-02-26T00:02:39.231Z,5.63
2024-02-26T00:05:08.345Z,2.53
2024-02-26T00:07:36.519Z,2.53
2024-02-26T00:10:04.936Z,7.00
2024-02-26T00:12:32.908Z,2.60
2024-02-26T00:15:00.549Z,4.03
2024-02-26T00:17:28.088Z,3.08
2024-02-26T00:19:55.686Z,4.47
2024-02-26T00:22:24.142Z,3.30
2024-02-26T00:24:51.701Z,3.25
2024-02-26T00:27:19.292Z,3.53
2024-02-26T00:29:46.891Z,3.25
2024-02-26T00:32:14.435Z,4.85
2024-02-26T00:34:42.031Z,3.80
2024-02-26T00:37:09.626Z,4.30
2024-02-26T00:39:37.133Z,6.60
2024-02-26T00:42:05.102Z,2.63
2024-02-26T00:44:33.025Z,3.28
2024-02-26T00:47:00.589Z,3.28
2024-02-26T00:49:28.144Z,3.95
2024-02-26T00:51:55.660Z,5.72
2024-02-26T00:54:23.210Z,3.83
2024-02-26T00:56:50.817Z,5.03
2024-02-26T00:59:18.357Z,3.65
2024-02-26T01:01:45.946Z,5.18
2024-02-26T01:04:14.045Z,2.97
2024-02-26T01:06:41.786Z,4.93
2024-02-26T01:09:10.402Z,5.72
2024-02-26T01:11:38.352Z,4.32
2024-02-26T01:14:05.989Z,3.95
2024-02-26T01:16:34.475Z,4.97
2024-02-26T01:19:02.235Z,4.18
2024-02-26T01:21:31.153Z,6.93
2024-02-26T01:23:58.684Z,5.32
2024-02-26T01:26:26.229Z,3.88
2024-02-26T01:28:54.160Z,4.50
2024-02-26T01:31:21.779Z,6.80
2024-02-26T01:33:49.486Z,7.97
2024-02-26T01:36:17.308Z,5.28
2024-02-26T01:38:44.980Z,7.78
2024-02-26T01:41:12.635Z,7.18
2024-02-26T01:43:40.189Z,4.28
2024-02-26T01:46:09.804Z,5.63
2024-02-26T01:48:37.556Z,6.90
2024-02-26T01:51:05.560Z,6.15
2024-02-26T01:53:33.491Z,4.70
2024-02-26T01:56:01.144Z,5.88
2024-02-26T01:58:29.013Z,4.65
2024-02-26T02:00:56.715Z,4.68
2024-02-26T02:03:25.572Z,6.22
2024-02-26T02:05:53.306Z,4.75
2024-02-26T02:08:21.004Z,4.45
2024-02-26T02:10:50.219Z,5.80
2024-02-26T02:13:18.216Z,3.95
2024-02-26T02:15:45.816Z,4.60
2024-02-26T02:18:13.556Z,5.00
2024-02-26T02:20:41.204Z,6.63
2024-02-26T02:23:08.776Z,4.80
2024-02-26T02:25:36.315Z,6.57
2024-02-26T02:28:04.100Z,5.55
2024-02-26T02:30:34.396Z,6.90
2024-02-26T02:33:02.340Z,7.10
2024-02-26T02:35:30.088Z,5.47
2024-02-26T02:37:59.165Z,8.23
2024-02-26T02:40:26.771Z,6.30
2024-02-26T02:42:54.312Z,8.60
2024-02-26T02:45:21.979Z,5.70
2024-02-26T02:47:49.579Z,6.35
2024-02-26T02:50:17.368Z,8.25
2024-02-26T02:52:44.956Z,5.03
2024-02-26T02:55:12.944Z,7.38
2024-02-26T02:57:42.353Z,9.77
2024-02-26T03:00:11.838Z,6.47
2024-02-26T03:02:39.544Z,6.55
2024-02-26T03:05:07.622Z,5.40
2024-02-26T03:07:35.194Z,6.70
2024-02-26T03:10:02.848Z,7.70
2024-02-26T03:12:30.841Z,6.53
2024-02-26T03:14:58.597Z,7.38
2024-02-26T03:17:26.441Z,7.25
2024-02-26T03:19:55.331Z,8.10
2024-02-26T03:22:23.136Z,7.93
2024-02-26T03:24:50.712Z,13.82
2024-02-26T03:27:18.372Z,10.80
2024-02-26T03:29:46.070Z,7.07
2024-02-26T03:32:13.708Z,8.52
2024-02-26T03:34:41.593Z,7.63
2024-02-26T03:37:11.791Z,8.80
2024-02-26T03:39:40.030Z,7.95
2024-02-26T03:42:07.880Z,8.57
2024-02-26T03:44:35.478Z,10.02
2024-02-26T03:47:02.985Z,9.70
2024-02-26T03:49:30.598Z,9.25
2024-02-26T03:51:58.303Z,9.63
2024-02-26T03:54:25.972Z,10.40
2024-02-26T03:56:53.593Z,8.20
2024-02-26T03:59:23.068Z,10.35
2024-02-26T04:01:50.609Z,9.05
2024-02-26T04:04:18.232Z,12.15
2024-02-26T04:06:49.281Z,7.32
2024-02-26T04:09:17.054Z,10.88
2024-02-26T04:11:45.410Z,9.90
2024-02-26T04:14:13.726Z,9.90
2024-02-26T04:16:41.394Z,10.20
2024-02-26T04:19:09.091Z,10.93
2024-02-26T04:21:37.241Z,8.68
2024-02-26T04:24:05.056Z,8.52
2024-02-26T04:26:32.904Z,9.43
2024-02-26T04:29:00.433Z,10.73
2024-02-26T04:31:28.600Z,8.27
2024-02-26T04:33:56.403Z,8.95
2024-02-26T04:36:24.468Z,10.25
2024-02-26T04:38:52.147Z,8.45
2024-02-26T04:41:19.698Z,11.77
2024-02-26T04:43:47.223Z,12.18
2024-02-26T04:46:14.743Z,12.95
2024-02-26T04:48:43.255Z,11.30
2024-02-26T04:51:11.062Z,12.32
2024-02-26T04:53:38.651Z,11.00
2024-02-26T04:56:06.667Z,14.38
2024-02-26T04:58:34.226Z,12.93
2024-02-26T05:01:01.918Z,13.82
2024-02-26T05:03:29.624Z,11.57
2024-02-26T05:05:59.254Z,11.98
2024-02-26T05:08:26.919Z,11.98
2024-02-26T05:10:54.533Z,12.73
2024-02-26T05:13:22.084Z,15.10
2024-02-26T05:15:50.836Z,13.38
2024-02-26T05:18:18.476Z,12.82
2024-02-26T05:20:46.109Z,12.82
2024-02-26T05:23:13.734Z,14.07
2024-02-26T05:25:42.406Z,14.43
2024-02-26T05:28:10.511Z,13.43
2024-02-26T05:30:41.033Z,14.23
2024-02-26T05:33:08.731Z,13.48
2024-02-26T05:35:36.285Z,10.77
2024-02-26T05:38:03.922Z,15.02
2024-02-26T05:40:32.118Z,11.88
2024-02-26T05:42:59.718Z,11.43
2024-02-26T05:45:27.306Z,10.65
2024-02-26T05:47:55.007Z,11.07
2024-02-26T05:50:22.662Z,15.02
2024-02-26T05:52:50.252Z,12.77
2024-02-26T05:55:17.940Z,13.05
2024-02-26T05:57:45.524Z,13.05
2024-02-26T06:00:15.554Z,12.85
2024-02-26T06:02:43.606Z,11.57
2024-02-26T06:05:11.341Z,13.45
2024-02-26T06:07:38.822Z,13.65
2024-02-26T06:10:07.684Z,15.25
2024-02-26T06:12:37.962Z,16.08
2024-02-26T06:15:05.963Z,16.42
2024-02-26T06:17:33.680Z,18.30
2024-02-26T06:20:01.929Z,15.07
2024-02-26T06:22:29.832Z,17.58
2024-02-26T06:24:57.391Z,15.82
2024-02-26T06:27:25.583Z,16.23
2024-02-26T06:29:54.998Z,16.50
2024-02-26T06:32:25.437Z,17.45
2024-02-26T06:34:53.156Z,18.27
2024-02-26T06:37:20.920Z,20.70
2024-02-26T06:39:48.702Z,21.00
2024-02-26T06:42:16.314Z,19.50
2024-02-26T06:44:43.935Z,20.58
2024-02-26T06:47:12.750Z,18.52
2024-02-26T06:49:40.587Z,21.95
2024-02-26T06:52:08.467Z,23.95
2024-02-26T06:54:35.976Z,24.42
2024-02-26T06:57:04.297Z,21.83
2024-02-26T06:59:31.926Z,26.65
2024-02-26T07:01:59.529Z,22.45
2024-02-26T07:04:27.207Z,23.50
2024-02-26T07:06:54.799Z,26.15
2024-02-26T07:09:22.610Z,27.15
2024-02-26T07:11:50.263Z,27.27
2024-02-26T07:14:17.870Z,26.35
2024-02-26T07:16:45.508Z,25.40
2024-02-26T07:19:13.781Z,24.38
2024-02-26T07:21:41.895Z,28.02
2024-02-26T07:24:09.658Z,26.20
2024-02-26T07:26:37.333Z,30.38
2024-02-26T07:29:05.328Z,27.48
2024-02-26T07:31:32.941Z,26.45
2024-02-26T07:34:00.870Z,28.00
2024-02-26T07:36:28.661Z,27.80
2024-02-26T07:38:56.291Z,29.25
2024-02-26T07:41:23.893Z,25.67
2024-02-26T07:43:51.445Z,25.65
2024-02-26T07:46:19.233Z,27.83
2024-02-26T07:48:47.181Z,32.53
2024-02-26T07:51:15.972Z,34.50
2024-02-26T07:53:43.586Z,26.88
2024-02-26T07:56:11.683Z,28.65
2024-02-26T07:58:39.234Z,28.75
2024-02-26T08:01:06.836Z,31.20
2024-02-26T08:03:34.463Z,23.95
2024-02-26T08:06:02.197Z,22.42
2024-02-26T08:08:29.808Z,20.98
2024-02-26T08:10:57.424Z,20.67
2024-02-26T08:13:25.169Z,21.25
2024-02-26T08:15:52.773Z,20.23
2024-02-26T08:18:21.318Z,16.60
2024-02-26T08:20:50.114Z,19.23
2024-02-26T08:23:18.108Z,17.73
2024-02-26T08:25:45.757Z,15.73
2024-02-26T08:28:14.419Z,18.00
2024-02-26T08:30:42.014Z,15.20
2024-02-26T08:33:10.106Z,16.40
2024-02-26T08:35:38.389Z,14.98
2024-02-26T08:38:06.152Z,16.77
2024-02-26T08:40:33.729Z,13.05
2024-02-26T08:43:01.260Z,11.88
2024-02-26T08:45:31.325Z,11.75
2024-02-26T08:47:59.742Z,13.73
2024-02-26T08:50:27.473Z,11.35
2024-02-26T08:52:55.104Z,12.30
2024-02-26T08:55:22.678Z,12.68
2024-02-26T08:57:50.353Z,11.13
2024-02-26T09:00:18.865Z,9.38
2024-02-26T09:02:46.571Z,13.93
2024-02-26T09:05:14.253Z,9.02
2024-02-26T09:07:41.985Z,12.80
2024-02-26T09:10:11.598Z,13.88
2024-02-26T09:12:40.819Z,8.48
2024-02-26T09:15:09.358Z,10.30
2024-02-26T09:17:37.484Z,11.60
2024-02-26T09:20:06.950Z,15.88
2024-02-26T09:22:36.121Z,12.43
2024-02-26T09:25:04.690Z,9.80
2024-02-26T09:27:32.748Z,9.30
2024-02-26T09:30:00.704Z,6.15
2024-02-26T09:32:28.911Z,12.60
2024-02-26T09:34:56.563Z,10.55
2024-02-26T09:37:24.142Z,7.93
2024-02-26T09:39:51.844Z,9.00
2024-02-26T09:42:22.249Z,7.80
2024-02-26T09:44:56.524Z,7.85
2024-02-26T09:47:25.917Z,10.73
2024-02-26T09:49:55.475Z,7.65
2024-02-26T09:52:23.828Z,8.20
2024-02-26T09:54:51.572Z,7.82
2024-02-26T09:57:19.328Z,9.73
2024-02-26T09:59:51.066Z,9.30
2024-02-26T10:02:21.798Z,7.70
2024-02-26T10:04:52.572Z,7.28
2024-02-26T10:07:20.800Z,7.18
2024-02-26T10:09:48.647Z,8.15
2024-02-26T10:12:18.601Z,8.95
2024-02-26T10:14:46.412Z,10.25
2024-02-26T10:17:14.177Z,8.07
2024-02-26T10:19:41.973Z,8.35
2024-02-26T10:22:09.720Z,9.15
2024-02-26T10:24:37.322Z,8.05
2024-02-26T10:27:05.231Z,11.40
2024-02-26T10:29:33.470Z,10.43
2024-02-26T10:32:01.179Z,10.60
2024-02-26T10:34:30.413Z,9.35
2024-02-26T10:36:58.179Z,8.75
2024-02-26T10:39:25.803Z,10.63
2024-02-26T10:41:54.567Z,8.88
2024-02-26T10:44:22.153Z,6.90
2024-02-26T10:46:51.180Z,7.78
2024-02-26T10:49:21.554Z,6.80
2024-02-26T10:51:58.846Z,9.27
2024-02-26T10:54:29.860Z,9.73
2024-02-26T10:57:02.245Z,9.25
2024-02-26T11:01:58.582Z,7.35
2024-02-26T11:04:28.918Z,9.75
2024-02-26T11:07:06.063Z,6.45
2024-02-26T11:09:35.021Z,8.10
2024-02-26T11:12:05.955Z,8.30
2024-02-26T11:14:33.778Z,7.28
2024-02-26T11:17:02.431Z,8.02
2024-02-26T11:19:33.979Z,12.50
2024-02-26T11:22:12.352Z,14.18
2024-02-26T11:24:46.796Z,7.38
2024-02-26T11:27:14.811Z,8.75
2024-02-26T11:29:46.783Z,7.32
2024-02-26T11:32:15.420Z,7.30
2024-02-26T11:34:45.087Z,6.93
2024-02-26T11:37:14.323Z,9.10
2024-02-26T11:39:46.902Z,10.35
2024-02-26T11:42:18.220Z,9.35
2024-02-26T11:44:46.126Z,8.53
2024-02-26T11:47:24.521Z,6.40
2024-02-26T11:49:52.344Z,6.18
2024-02-26T11:52:20.113Z,9.23
2024-02-26T11:54:53.853Z,9.60
2024-02-26T11:57:24.354Z,10.13
2024-02-26T11:59:52.551Z,8.55
2024-02-26T12:02:45.064Z,8.07
2024-02-26T12:05:25.133Z,9.70
2024-02-26T12:07:58.271Z,7.03
2024-02-26T12:10:40.223Z,7.10
2024-02-26T12:13:18.622Z,8.98
2024-02-26T12:16:08.222Z,5.97
2024-02-26T12:18:36.926Z,9.38
2024-02-26T12:21:07.957Z,7.00
2024-02-26T12:23:35.995Z,8.43
2024-02-26T12:26:06.750Z,7.97
2024-02-26T12:28:36.436Z,6.47
2024-02-26T12:31:04.147Z,8.48
2024-02-26T12:33:33.096Z,6.85
2024-02-26T12:36:01.330Z,6.18
2024-02-26T12:38:30.621Z,7.22
2024-02-26T12:40:58.372Z,8.07
2024-02-26T12:43:26.138Z,7.80
2024-02-26T12:45:53.917Z,8.20
2024-02-26T12:48:21.706Z,7.28
2024-02-26T12:50:49.780Z,4.78
2024-02-26T12:53:17.684Z,7.25
2024-02-26T12:55:45.872Z,7.72
2024-02-26T12:58:14.503Z,6.63
2024-02-26T13:00:42.372Z,9.50
2024-02-26T13:03:11.528Z,4.10
2024-02-26T13:05:39.799Z,7.07
2024-02-26T13:08:09.478Z,6.15
2024-02-26T13:10:38.176Z,7.93
2024-02-26T13:13:06.417Z,7.45
2024-02-26T13:15:34.226Z,7.22
2024-02-26T13:18:11.868Z,5.22
2024-02-26T13:20:41.277Z,6.05
2024-02-26T13:23:10.240Z,10.90
2024-02-26T13:25:42.625Z,7.55
2024-02-26T13:28:20.574Z,6.22
2024-02-26T13:30:58.791Z,6.38
2024-02-26T13:33:28.034Z,5.40
2024-02-26T13:35:57.746Z,6.78
2024-02-26T13:38:25.676Z,5.22
2024-02-26T13:40:53.576Z,5.32
2024-02-26T13:43:21.477Z,6.53
2024-02-26T13:45:49.747Z,7.57
2024-02-26T13:48:17.806Z,7.47
2024-02-26T13:50:46.738Z,6.82
2024-02-26T13:53:15.723Z,4.53
2024-02-26T13:55:45.176Z,5.97
2024-02-26T13:58:16.509Z,6.35
2024-02-26T14:00:44.697Z,4.00
2024-02-26T14:03:12.677Z,7.22
2024-02-26T14:05:40.651Z,4.85
2024-02-26T14:08:09.078Z,6.18
2024-02-26T14:10:37.372Z,5.47
2024-02-26T14:13:05.171Z,5.00
2024-02-26T14:15:35.089Z,6.57
2024-02-26T14:18:05.424Z,6.75
2024-02-26T14:20:33.128Z,7.68
2024-02-26T14:23:01.740Z,7.57
2024-02-26T14:25:31.419Z,4.43
2024-02-26T14:28:00.105Z,6.47
2024-02-26T14:30:28.628Z,4.50
2024-02-26T14:32:56.761Z,4.03
2024-02-26T14:35:24.606Z,5.72
2024-02-26T14:37:53.126Z,3.47
2024-02-26T14:40:20.821Z,4.00
2024-02-26T14:42:49.824Z,4.30
2024-02-26T14:45:17.814Z,5.15
2024-02-26T14:47:45.620Z,4.25
2024-02-26T14:50:13.547Z,6.50
2024-02-26T14:52:41.293Z,4.22
2024-02-26T14:55:09.012Z,5.65
2024-02-26T14:57:36.680Z,3.90
2024-02-26T15:00:06.632Z,3.53
2024-02-26T15:02:34.272Z,2.53
2024-02-26T15:05:01.867Z,2.85
2024-02-26T15:07:29.531Z,3.78
2024-02-26T15:10:00.724Z,3.53
2024-02-26T15:12:28.963Z,4.97
2024-02-26T15:14:57.845Z,2.63
2024-02-26T15:17:25.665Z,4.32
2024-02-26T15:19:53.308Z,4.60
2024-02-26T15:22:20.953Z,5.53
2024-02-26T15:24:48.677Z,6.55
2024-02-26T15:27:16.342Z,4.13
2024-02-26T15:29:43.879Z,5.10
2024-02-26T15:32:12.803Z,6.07
2024-02-26T15:34:40.522Z,5.22
2024-02-26T15:37:08.388Z,4.20
2024-02-26T15:39:37.565Z,4.20
2024-02-26T15:42:05.375Z,4.47
2024-02-26T15:44:32.906Z,6.78
2024-02-26T15:47:00.917Z,5.07
2024-02-26T15:49:28.521Z,6.03
2024-02-26T15:51:56.138Z,6.32
2024-02-26T15:54:23.707Z,6.20
2024-02-26T15:56:51.393Z,9.15
2024-02-26T15:59:20.645Z,4.68
2024-02-26T16:01:48.830Z,6.72
2024-02-26T16:04:16.551Z,5.30
2024-02-26T16:06:50.964Z,5.38
2024-02-26T16:09:18.538Z,6.93
2024-02-26T16:11:46.269Z,5.75
2024-02-26T16:14:40.601Z,6.15
2024-02-26T16:17:35.942Z,6.20
2024-02-26T16:20:06.288Z,8.75
2024-02-26T16:22:34.058Z,5.03
2024-02-26T16:25:01.639Z,8.60
2024-02-26T16:27:29.309Z,5.07
2024-02-26T16:29:57.429Z,4.70
2024-02-26T16:32:25.145Z,6.03
2024-02-26T16:34:53.082Z,5.25
2024-02-26T16:37:20.737Z,5.88
2024-02-26T16:39:48.306Z,5.10
2024-02-26T16:42:16.057Z,5.90
2024-02-26T16:44:43.820Z,5.15
2024-02-26T16:47:11.743Z,5.82
2024-02-26T16:49:39.509Z,6.38
2024-02-26T16:52:07.457Z,4.55
2024-02-26T16:54:35.072Z,6.40
2024-02-26T16:57:03.219Z,4.07
2024-02-26T16:59:31.159Z,5.00
2024-02-26T17:02:00.247Z,6.60
2024-02-26T17:04:28.414Z,11.15
2024-02-26T17:06:56.516Z,7.20
2024-02-26T17:09:24.687Z,9.18
2024-02-26T17:11:54.504Z,5.43
2024-02-26T17:14:23.087Z,7.10
2024-02-26T17:16:54.209Z,7.30
2024-02-26T17:19:21.928Z,8.05
2024-02-26T17:21:49.542Z,5.15
2024-02-26T17:24:17.166Z,6.47
2024-02-26T17:26:44.690Z,6.30
2024-02-26T17:29:12.557Z,8.05
2024-02-26T17:31:43.312Z,5.85
2024-02-26T17:34:12.294Z,5.68
2024-02-26T17:36:40.977Z,5.93
2024-02-26T17:39:08.640Z,4.82
2024-02-26T17:41:36.221Z,6.00
2024-02-26T17:44:03.908Z,7.28
2024-02-26T17:46:31.486Z,6.13
2024-02-26T17:48:59.255Z,5.07
2024-02-26T17:51:27.000Z,5.57
2024-02-26T17:53:55.103Z,5.75
2024-02-26T17:56:22.736Z,5.47
2024-02-26T17:58:50.630Z,7.07
2024-02-26T18:01:18.357Z,8.95
2024-02-26T18:03:46.135Z,6.10
2024-02-26T18:06:13.929Z,9.73
2024-02-26T18:08:41.586Z,6.85
2024-02-26T18:11:11.380Z,8.05
2024-02-26T18:13:43.808Z,5.07
2024-02-26T18:18:39.909Z,7.05
2024-02-26T18:21:07.961Z,7.82
2024-02-26T18:23:36.076Z,10.25
2024-02-26T18:26:04.168Z,7.97
2024-02-26T18:28:32.345Z,7.50
2024-02-26T18:31:00.709Z,6.88
2024-02-26T18:33:30.363Z,7.50
2024-02-26T18:35:58.838Z,7.80
2024-02-26T18:38:27.725Z,8.43
2024-02-26T18:40:55.859Z,9.20
2024-02-26T18:43:23.941Z,7.65
2024-02-26T18:45:52.546Z,7.85
2024-02-26T18:48:22.188Z,11.50
2024-02-26T18:50:50.349Z,7.15
2024-02-26T18:53:19.610Z,6.38
2024-02-26T18:55:48.091Z,5.65
2024-02-26T18:58:16.156Z,6.65
2024-02-26T19:00:44.326Z,12.18
2024-02-26T19:03:12.380Z,6.65
2024-02-26T19:05:40.364Z,6.97
2024-02-26T19:08:09.674Z,10.90
2024-02-26T19:10:38.592Z,4.90
2024-02-26T19:13:09.688Z,6.57
2024-02-26T19:15:39.675Z,3.55
2024-02-26T19:18:08.035Z,3.42
2024-02-26T19:20:36.005Z,7.82
2024-02-26T19:23:04.384Z,4.47
2024-02-26T19:25:31.999Z,4.20
2024-02-26T19:27:59.643Z,4.07
2024-02-26T19:30:27.334Z,4.18
2024-02-26T19:32:55.041Z,5.63
2024-02-26T19:35:22.625Z,6.43
2024-02-26T19:37:50.256Z,5.78
2024-02-26T19:40:17.910Z,5.90
2024-02-26T19:42:45.476Z,6.75
2024-02-26T19:45:13.377Z,4.88
2024-02-26T19:47:41.426Z,4.72
2024-02-26T19:50:10.194Z,6.20
2024-02-26T19:52:37.845Z,5.22
2024-02-26T19:55:05.986Z,6.47
2024-02-26T19:57:34.912Z,6.70
2024-02-26T20:00:03.527Z,7.78
2024-02-26T20:02:31.158Z,5.05
2024-02-26T20:04:58.648Z,6.05
2024-02-26T20:07:26.191Z,4.80
2024-02-26T20:09:53.698Z,9.23
2024-02-26T20:12:21.343Z,7.57
2024-02-26T20:14:48.899Z,6.30
2024-02-26T20:17:17.195Z,7.60
2024-02-26T20:19:45.044Z,7.75
2024-02-26T20:22:14.646Z,6.88
2024-02-26T20:24:42.395Z,9.77
2024-02-26T20:27:12.083Z,6.40
2024-02-26T20:29:40.127Z,7.63
2024-02-26T20:32:08.233Z,8.27
2024-02-26T20:34:35.992Z,8.57
2024-02-26T20:37:03.863Z,18.10
2024-02-26T20:39:31.548Z,7.07
2024-02-26T20:41:59.221Z,7.82
2024-02-26T20:44:26.791Z,10.00
2024-02-26T20:46:57.025Z,6.10
2024-02-26T20:49:24.781Z,7.47
2024-02-26T20:51:52.428Z,9.60
2024-02-26T20:54:20.577Z,7.47
2024-02-26T20:56:50.770Z,6.82
2024-02-26T20:59:18.689Z,6.82
2024-02-26T21:01:46.427Z,11.25
2024-02-26T21:04:13.194Z,6.93
2024-02-26T21:06:40.913Z,8.15
2024-02-26T21:09:09.409Z,9.55
2024-02-26T21:11:37.473Z,6.40
2024-02-26T21:14:06.124Z,9.77
2024-02-26T21:16:33.733Z,7.53
2024-02-26T21:19:03.290Z,8.02
2024-02-26T21:21:31.749Z,9.23
2024-02-26T21:24:02.147Z,9.30
2024-02-26T21:26:31.294Z,10.15
2024-02-26T21:28:58.854Z,8.57
2024-02-26T21:31:26.470Z,7.80
2024-02-26T21:33:54.230Z,9.18
2024-02-26T21:36:22.359Z,9.30
2024-02-26T21:38:51.353Z,9.88
2024-02-26T21:41:20.597Z,7.82
2024-02-26T21:43:51.815Z,7.82
2024-02-26T21:46:20.539Z,7.97
2024-02-26T21:48:48.653Z,7.70
2024-02-26T21:51:16.524Z,12.65
2024-02-26T21:53:46.508Z,8.35
2024-02-26T21:56:15.671Z,7.33
2024-02-26T21:58:43.273Z,8.57
2024-02-26T22:01:10.879Z,7.25
2024-02-26T22:03:38.620Z,7.90
2024-02-26T22:06:07.283Z,7.75
2024-02-26T22:08:34.950Z,7.43
2024-02-26T22:11:03.647Z,7.75
2024-02-26T22:13:31.387Z,8.13
2024-02-26T22:15:59.150Z,12.00
2024-02-26T22:18:26.894Z,11.27
2024-02-26T22:20:54.633Z,8.95
2024-02-26T22:23:22.259Z,8.35
2024-02-26T22:25:50.210Z,7.93
2024-02-26T22:28:17.833Z,8.68
2024-02-26T22:30:45.533Z,6.85
2024-02-26T22:33:13.253Z,7.80
2024-02-26T22:35:40.996Z,7.50
2024-02-26T22:38:08.620Z,6.65
2024-02-26T22:40:36.167Z,7.63
2024-02-26T22:43:03.790Z,8.55
2024-02-26T22:45:31.336Z,7.38
2024-02-26T22:47:59.234Z,7.40
2024-02-26T22:50:26.925Z,9.48
2024-02-26T22:52:54.926Z,7.38
2024-02-26T22:55:24.777Z,10.32
2024-02-26T22:57:52.892Z,10.05
2024-02-26T23:00:32.436Z,7.35
2024-02-26T23:03:01.469Z,5.35
2024-02-26T23:05:30.047Z,6.90
2024-02-26T23:07:58.554Z,8.98
2024-02-26T23:10:26.812Z,8.88
2024-02-26T23:12:54.626Z,7.03
2024-02-26T23:15:22.411Z,8.30
2024-02-26T23:17:50.296Z,8.00
2024-02-26T23:20:18.225Z,9.30
2024-02-26T23:22:47.557Z,8.45
2024-02-26T23:25:16.822Z,7.68
2024-02-26T23:27:46.177Z,10.30
2024-02-26T23:30:14.945Z,8.13
2024-02-26T23:32:43.243Z,14.80
2024-02-26T23:35:11.563Z,8.85
2024-02-26T23:37:39.353Z,7.85
2024-02-26T23:40:08.158Z,7.72
2024-02-26T23:42:38.124Z,10.15
2024-02-26T23:45:08.664Z,7.68
2024-02-26T23:47:36.607Z,7.38
2024-02-26T23:50:05.269Z,8.52
2024-02-26T23:52:32.965Z,9.55
2024-02-26T23:55:00.629Z,8.63
2024-02-26T23:57:28.180Z,6.75
2024-02-26T23:59:55.893Z,7.50
